createdAt,value
2022-12-28T00:01:14.330Z,55.49
2022-12-28T00:03:43.407Z,55.55
2022-12-28T00:06:11.356Z,55.87
2022-12-28T00:08:39.102Z,55.13
2022-12-28T00:11:18.615Z,54.88
2022-12-28T00:13:51.219Z,54.84
2022-12-28T00:16:24.661Z,55.07
2022-12-28T00:18:53.404Z,54.96
2022-12-28T00:21:20.455Z,54.98
2022-12-28T00:23:50.898Z,55.02
2022-12-28T00:26:18.224Z,53.99
2022-12-28T00:28:45.254Z,54.55
2022-12-28T00:31:12.690Z,54.38
2022-12-28T00:33:39.960Z,54.06
2022-12-28T00:36:12.744Z,54.05
2022-12-28T00:38:40.345Z,53.75
2022-12-28T00:41:08.427Z,53.94
2022-12-28T00:43:36.008Z,53.65
2022-12-28T00:46:03.635Z,54.16
2022-12-28T00:48:30.628Z,53.48
2022-12-28T00:51:03.394Z,53.74
2022-12-28T00:53:31.692Z,53.65
2022-12-28T00:56:06.572Z,54.08
2022-12-28T00:58:33.696Z,53.32
2022-12-28T01:01:00.785Z,53.97
2022-12-28T01:03:27.850Z,54.09
2022-12-28T01:05:55.784Z,53.98
2022-12-28T01:08:22.789Z,54.16
2022-12-28T01:10:51.042Z,54.24
2022-12-28T01:13:17.954Z,53.59
2022-12-28T01:15:44.900Z,53.90
2022-12-28T01:18:12.758Z,53.95
2022-12-28T01:20:40.223Z,53.79
2022-12-28T01:23:07.407Z,53.92
2022-12-28T01:25:34.730Z,53.34
2022-12-28T01:28:03.037Z,53.83
2022-12-28T01:30:30.493Z,53.12
2022-12-28T01:32:59.640Z,52.83
2022-12-28T01:35:27.870Z,52.98
2022-12-28T01:37:56.879Z,52.98
2022-12-28T01:40:23.837Z,53.15
2022-12-28T01:42:50.803Z,53.05
2022-12-28T01:45:22.062Z,53.32
2022-12-28T01:47:53.610Z,53.45
2022-12-28T01:50:27.325Z,53.54
2022-12-28T01:53:03.307Z,54.19
2022-12-28T01:55:35.814Z,53.40
2022-12-28T01:58:08.211Z,54.10
2022-12-28T02:00:36.829Z,53.86
2022-12-28T02:03:10.289Z,54.01
2022-12-28T02:05:41.019Z,54.06
2022-12-28T02:08:16.789Z,54.73
2022-12-28T02:10:46.253Z,55.33
2022-12-28T02:13:16.937Z,55.00
2022-12-28T02:15:48.147Z,55.12
2022-12-28T02:18:18.131Z,55.12
2022-12-28T02:21:16.485Z,55.88
2022-12-28T02:24:15.194Z,56.85
2022-12-28T02:26:53.982Z,57.18
2022-12-28T02:29:55.629Z,57.20
2022-12-28T02:32:55.673Z,57.01
2022-12-28T02:35:37.046Z,57.29
2022-12-28T02:38:15.848Z,57.70
2022-12-28T02:40:49.850Z,58.33
2022-12-28T02:43:17.037Z,58.49
2022-12-28T02:46:05.832Z,58.56
2022-12-28T02:48:59.446Z,59.75
2022-12-28T02:51:58.113Z,60.16
2022-12-28T02:55:20.759Z,60.00
2022-12-28T02:58:25.395Z,61.44
2022-12-28T03:01:13.390Z,61.48
2022-12-28T03:03:59.894Z,61.69
2022-12-28T03:07:04.650Z,61.88
2022-12-28T03:09:41.544Z,61.95
2022-12-28T03:12:19.531Z,61.71
2022-12-28T03:14:56.434Z,62.64
2022-12-28T03:17:47.485Z,62.47
2022-12-28T03:20:41.999Z,62.40
2022-12-28T03:23:32.458Z,62.47
2022-12-28T03:26:21.437Z,62.28
2022-12-28T03:29:09.485Z,63.09
2022-12-28T03:31:37.507Z,62.43
2022-12-28T03:34:07.036Z,62.28
2022-12-28T03:36:47.854Z,62.68
2022-12-28T03:39:30.248Z,62.85
2022-12-28T03:42:24.760Z,63.00
2022-12-28T03:45:01.637Z,62.29
2022-12-28T03:47:31.700Z,62.38
2022-12-28T03:50:00.550Z,62.35
2022-12-28T03:52:28.381Z,62.67
2022-12-28T03:54:55.385Z,62.32
2022-12-28T03:57:23.164Z,61.78
2022-12-28T03:59:50.165Z,61.99
2022-12-28T04:02:17.251Z,61.79
2022-12-28T04:04:44.237Z,61.74
2022-12-28T04:07:12.518Z,62.42
2022-12-28T04:09:39.391Z,62.24
2022-12-28T04:12:06.800Z,63.17
2022-12-28T04:14:33.695Z,63.03
2022-12-28T04:17:00.572Z,63.07
2022-12-28T04:19:27.618Z,62.79
2022-12-28T04:21:54.488Z,63.01
2022-12-28T04:24:22.787Z,62.99
2022-12-28T04:26:49.643Z,63.31
2022-12-28T04:29:16.509Z,64.40
2022-12-28T04:31:43.446Z,64.64
2022-12-28T04:34:11.037Z,64.31
2022-12-28T04:36:39.479Z,65.17
2022-12-28T04:39:06.549Z,65.49
2022-12-28T04:41:34.805Z,64.84
2022-12-28T04:44:01.987Z,64.80
2022-12-28T04:46:28.971Z,64.99
2022-12-28T04:48:55.897Z,65.62
2022-12-28T04:51:25.956Z,65.55
2022-12-28T04:53:53.878Z,65.21
2022-12-28T04:56:23.413Z,65.63
2022-12-28T04:58:56.134Z,66.23
2022-12-28T05:01:23.829Z,66.73
2022-12-28T05:03:57.179Z,67.04
2022-12-28T05:06:25.624Z,67.46
2022-12-28T05:08:52.743Z,67.63
2022-12-28T05:11:23.715Z,67.37
2022-12-28T05:13:51.080Z,67.10
2022-12-28T05:16:22.310Z,67.73
2022-12-28T05:18:49.850Z,67.94
2022-12-28T05:21:19.910Z,67.60
2022-12-28T05:23:48.952Z,68.13
2022-12-28T05:26:18.660Z,68.73
2022-12-28T05:28:46.525Z,68.23
2022-12-28T05:31:17.163Z,67.77
2022-12-28T05:33:46.005Z,67.89
2022-12-28T05:36:16.954Z,68.66
2022-12-28T05:38:44.803Z,68.16
2022-12-28T05:41:15.466Z,68.07
2022-12-28T05:43:43.345Z,68.47
2022-12-28T05:46:13.994Z,68.17
2022-12-28T05:48:42.792Z,68.38
2022-12-28T05:51:13.968Z,68.29
2022-12-28T05:53:42.543Z,68.33
2022-12-28T05:56:14.572Z,68.39
2022-12-28T05:58:43.007Z,69.13
2022-12-28T06:01:12.973Z,69.48
2022-12-28T06:03:40.782Z,69.57
2022-12-28T06:06:13.146Z,69.20
2022-12-28T06:08:41.213Z,69.24
2022-12-28T06:11:11.226Z,69.51
2022-12-28T06:13:38.799Z,70.28
2022-12-28T06:16:07.474Z,69.42
2022-12-28T06:18:35.510Z,69.70
2022-12-28T06:21:05.313Z,68.82
2022-12-28T06:23:34.040Z,68.47
2022-12-28T06:26:03.177Z,68.52
2022-12-28T06:28:30.283Z,68.22
2022-12-28T06:31:05.425Z,68.67
2022-12-28T06:33:33.358Z,69.28
2022-12-28T06:36:00.499Z,69.21
2022-12-28T06:38:29.557Z,69.43
2022-12-28T06:41:13.517Z,69.29
2022-12-28T06:43:43.741Z,69.54
2022-12-28T06:46:12.416Z,68.58
2022-12-28T06:48:40.482Z,68.67
2022-12-28T06:51:11.840Z,68.57
2022-12-28T06:53:39.209Z,69.09
2022-12-28T06:56:11.409Z,69.29
2022-12-28T06:58:39.683Z,68.47
2022-12-28T07:01:09.172Z,68.77
2022-12-28T07:03:36.376Z,67.99
2022-12-28T07:06:05.565Z,68.18
2022-12-28T07:08:33.517Z,67.76
2022-12-28T07:11:05.360Z,67.68
2022-12-28T07:13:34.621Z,68.34
2022-12-28T07:16:04.187Z,68.67
2022-12-28T07:18:31.602Z,68.49
2022-12-28T07:21:00.659Z,68.32
2022-12-28T07:23:30.094Z,67.72
2022-12-28T07:25:58.001Z,67.53
2022-12-28T07:28:25.338Z,67.53
2022-12-28T07:30:53.585Z,68.09
2022-12-28T07:33:20.478Z,67.28
2022-12-28T07:35:47.347Z,67.27
2022-12-28T07:38:20.949Z,67.20
2022-12-28T07:40:48.720Z,66.96
2022-12-28T07:43:15.592Z,66.64
2022-12-28T07:45:43.450Z,66.62
2022-12-28T07:48:11.694Z,66.45
2022-12-28T07:50:38.659Z,66.13
2022-12-28T07:53:05.667Z,65.97
2022-12-28T07:55:32.580Z,65.70
2022-12-28T07:57:59.453Z,66.02
2022-12-28T08:00:26.436Z,66.30
2022-12-28T08:02:56.044Z,66.06
2022-12-28T08:05:24.306Z,66.18
2022-12-28T08:07:51.222Z,65.98
2022-12-28T08:10:18.039Z,66.28
2022-12-28T08:12:44.900Z,65.89
2022-12-28T08:15:12.129Z,66.11
2022-12-28T08:17:38.977Z,65.97
2022-12-28T08:20:07.181Z,66.09
2022-12-28T08:22:35.497Z,66.41
2022-12-28T08:25:03.991Z,66.45
2022-12-28T08:27:36.564Z,66.61
2022-12-28T08:30:07.204Z,66.52
2022-12-28T08:32:34.068Z,66.62
2022-12-28T08:35:01.039Z,66.35
2022-12-28T08:37:27.968Z,66.42
2022-12-28T08:39:56.225Z,66.19
2022-12-28T08:42:23.058Z,66.39
2022-12-28T08:44:49.925Z,65.97
2022-12-28T08:47:16.876Z,65.35
2022-12-28T08:49:44.542Z,65.89
2022-12-28T08:52:11.446Z,65.80
2022-12-28T08:54:38.330Z,65.55
2022-12-28T08:57:06.562Z,65.46
2022-12-28T08:59:33.410Z,65.09
2022-12-28T09:02:00.346Z,65.12
2022-12-28T09:04:27.433Z,64.83
2022-12-28T09:06:54.474Z,64.83
2022-12-28T09:09:21.884Z,65.00
2022-12-28T09:11:49.223Z,65.16
2022-12-28T09:14:23.293Z,65.26
2022-12-28T09:16:52.223Z,65.14
2022-12-28T09:19:19.609Z,65.41
2022-12-28T09:21:48.943Z,65.16
2022-12-28T09:24:16.017Z,64.89
2022-12-28T09:26:43.181Z,64.69
2022-12-28T09:29:16.168Z,64.53
2022-12-28T09:31:44.587Z,64.27
2022-12-28T09:37:02.931Z,63.68
2022-12-28T09:39:29.972Z,63.85
2022-12-28T09:42:01.336Z,63.68
2022-12-28T09:44:49.361Z,63.51
2022-12-28T09:47:33.967Z,63.69
2022-12-28T09:50:24.947Z,63.49
2022-12-28T09:53:13.579Z,63.39
2022-12-28T09:55:53.408Z,63.45
2022-12-28T09:58:21.870Z,63.25
2022-12-28T10:00:53.999Z,63.26
2022-12-28T10:03:27.057Z,63.33
2022-12-28T10:05:57.513Z,63.39
2022-12-28T10:08:26.366Z,63.69
2022-12-28T10:10:59.360Z,63.77
2022-12-28T10:13:54.085Z,63.73
2022-12-28T10:16:23.969Z,63.68
2022-12-28T10:18:52.707Z,64.54
2022-12-28T10:21:31.605Z,64.41
2022-12-28T10:26:48.236Z,64.25
2022-12-28T10:29:20.475Z,64.00
2022-12-28T10:31:59.700Z,64.48
2022-12-28T10:34:35.711Z,64.63
2022-12-28T10:37:15.504Z,64.38
2022-12-28T10:39:51.538Z,63.85
2022-12-28T10:42:25.440Z,64.26
2022-12-28T10:44:57.572Z,64.16
2022-12-28T10:47:34.933Z,64.36
2022-12-28T10:52:58.120Z,64.32
2022-12-28T10:55:30.820Z,64.32
2022-12-28T10:58:33.753Z,64.50
2022-12-28T11:01:05.679Z,64.81
2022-12-28T11:03:37.294Z,65.03
2022-12-28T11:06:22.748Z,65.27
2022-12-28T11:09:16.400Z,65.32
2022-12-28T11:11:47.127Z,65.13
2022-12-28T11:14:28.085Z,64.93
2022-12-28T11:16:55.026Z,64.78
2022-12-28T11:19:24.329Z,64.95
2022-12-28T11:21:53.255Z,65.26
2022-12-28T11:24:26.961Z,65.43
2022-12-28T11:26:54.179Z,65.11
2022-12-28T11:29:21.230Z,64.80
2022-12-28T11:31:56.645Z,64.30
2022-12-28T11:34:28.271Z,64.59
2022-12-28T11:36:57.084Z,64.18
2022-12-28T11:39:44.418Z,64.24
2022-12-28T11:44:59.979Z,64.27
2022-12-28T11:47:36.212Z,64.08
2022-12-28T11:50:50.225Z,63.72
2022-12-28T11:53:58.372Z,63.44
2022-12-28T11:56:28.597Z,63.13
2022-12-28T11:59:21.518Z,63.00
2022-12-28T12:01:57.011Z,63.00
2022-12-28T12:04:43.705Z,62.77
2022-12-28T12:07:47.833Z,62.80
2022-12-28T12:10:35.351Z,62.73
2022-12-28T12:13:37.498Z,62.75
2022-12-28T12:16:15.975Z,62.54
2022-12-28T12:18:48.706Z,63.41
2022-12-28T12:21:31.317Z,63.44
2022-12-28T12:24:12.955Z,63.22
2022-12-28T12:26:50.955Z,63.02
2022-12-28T12:29:25.952Z,62.89
2022-12-28T12:32:02.352Z,63.03
2022-12-28T12:34:43.666Z,62.91
2022-12-28T12:37:45.924Z,63.28
2022-12-28T12:41:10.181Z,62.94
2022-12-28T12:43:56.756Z,62.89
2022-12-28T12:47:05.391Z,62.68
2022-12-28T12:50:17.351Z,62.96
2022-12-28T12:53:05.288Z,62.91
2022-12-28T12:55:55.824Z,62.74
2022-12-28T12:58:30.574Z,62.80
2022-12-28T13:01:22.912Z,62.92
2022-12-28T13:03:50.937Z,63.58
2022-12-28T13:06:24.218Z,63.33
2022-12-28T13:08:59.090Z,63.49
2022-12-28T13:11:30.874Z,63.29
2022-12-28T13:13:57.783Z,63.28
2022-12-28T13:16:31.005Z,63.52
2022-12-28T13:19:00.990Z,63.43
2022-12-28T13:21:30.728Z,64.02
2022-12-28T13:23:57.653Z,64.63
2022-12-28T13:26:29.242Z,64.54
2022-12-28T13:29:01.468Z,64.95
2022-12-28T13:31:41.902Z,64.74
2022-12-28T13:34:18.699Z,65.18
2022-12-28T13:36:53.577Z,65.45
2022-12-28T13:39:21.441Z,65.26
2022-12-28T13:41:52.065Z,65.64
2022-12-28T13:44:29.908Z,65.78
2022-12-28T13:47:05.711Z,66.11
2022-12-28T13:49:41.702Z,66.14
2022-12-28T13:52:16.820Z,66.44
2022-12-28T13:54:52.175Z,67.10
2022-12-28T14:00:11.405Z,66.80
2022-12-28T14:02:41.763Z,66.89
2022-12-28T14:05:16.107Z,66.63
2022-12-28T14:07:43.301Z,66.38
2022-12-28T14:10:11.696Z,66.65
2022-12-28T14:12:39.471Z,66.33
2022-12-28T14:15:09.450Z,66.18
2022-12-28T14:17:38.629Z,66.26
2022-12-28T14:20:09.884Z,66.41
2022-12-28T14:22:40.071Z,66.63
2022-12-28T14:25:10.509Z,66.88
2022-12-28T14:27:42.524Z,66.88
2022-12-28T14:30:23.395Z,67.10
2022-12-28T14:32:51.660Z,67.16
2022-12-28T14:35:23.386Z,67.29
2022-12-28T14:37:54.032Z,67.33
2022-12-28T14:40:30.463Z,67.11
2022-12-28T14:43:03.330Z,67.04
2022-12-28T14:48:37.117Z,67.23
2022-12-28T14:51:24.019Z,67.37
2022-12-28T14:54:17.977Z,67.27
2022-12-28T14:56:51.283Z,67.29
2022-12-28T14:59:25.339Z,67.19
2022-12-28T15:00:25.281Z,66.79
2022-12-28T15:01:52.585Z,67.18
2022-12-28T15:04:37.215Z,67.42
2022-12-28T15:07:07.635Z,67.53
2022-12-28T15:09:34.890Z,67.76
2022-12-28T15:12:13.685Z,67.32
2022-12-28T15:14:41.403Z,67.42
2022-12-28T15:17:09.460Z,67.51
2022-12-28T15:19:36.433Z,67.43
2022-12-28T15:22:04.954Z,67.70
2022-12-28T15:24:34.281Z,67.91
2022-12-28T15:27:01.728Z,67.86
2022-12-28T15:29:55.683Z,67.10
2022-12-28T15:32:16.137Z,67.22
2022-12-28T15:34:43.227Z,67.00
2022-12-28T15:37:11.456Z,66.31
2022-12-28T15:39:38.356Z,66.25
2022-12-28T15:42:05.439Z,66.32
2022-12-28T15:44:32.446Z,65.95
2022-12-28T15:46:59.482Z,65.62
2022-12-28T15:49:26.569Z,65.64
2022-12-28T15:51:53.631Z,65.42
2022-12-28T15:54:21.868Z,65.31
2022-12-28T15:56:53.699Z,64.87
2022-12-28T15:59:20.959Z,64.97
2022-12-28T16:01:48.232Z,65.04
2022-12-28T16:04:15.449Z,64.84
2022-12-28T16:06:44.940Z,64.89
2022-12-28T16:09:13.813Z,64.55
2022-12-28T16:11:42.821Z,64.23
2022-12-28T16:14:15.328Z,64.21
2022-12-28T16:16:43.753Z,64.54
2022-12-28T16:19:12.727Z,64.38
2022-12-28T16:21:40.170Z,64.66
2022-12-28T16:24:07.805Z,64.23
2022-12-28T16:26:34.996Z,64.26
2022-12-28T16:29:03.461Z,63.98
2022-12-28T16:31:33.340Z,63.94
2022-12-28T16:34:03.707Z,63.97
2022-12-28T16:36:31.650Z,63.75
2022-12-28T16:38:58.930Z,64.11
2022-12-28T16:41:31.402Z,63.98
2022-12-28T16:44:05.994Z,64.10
2022-12-28T16:46:33.479Z,64.22
2022-12-28T16:49:01.948Z,64.07
2022-12-28T16:51:29.829Z,64.09
2022-12-28T16:53:57.281Z,63.86
2022-12-28T16:56:24.293Z,64.02
2022-12-28T16:58:55.833Z,63.19
2022-12-28T17:01:24.215Z,63.01
2022-12-28T17:03:51.190Z,62.54
2022-12-28T17:06:18.961Z,62.63
2022-12-28T17:08:45.963Z,62.60
2022-12-28T17:11:13.564Z,62.43
2022-12-28T17:13:40.473Z,62.42
2022-12-28T17:16:08.779Z,61.70
2022-12-28T17:18:37.984Z,62.02
2022-12-28T17:21:09.967Z,62.15
2022-12-28T17:23:39.308Z,62.01
2022-12-28T17:26:06.588Z,61.78
2022-12-28T17:28:33.533Z,61.24
2022-12-28T17:31:07.528Z,61.15
2022-12-28T17:33:39.164Z,61.18
2022-12-28T17:36:08.955Z,61.17
2022-12-28T17:38:36.078Z,60.95
2022-12-28T17:41:08.910Z,60.79
2022-12-28T17:43:36.097Z,60.43
2022-12-28T17:46:03.694Z,60.62
2022-12-28T17:48:31.028Z,60.56
2022-12-28T17:50:58.959Z,60.51
2022-12-28T17:53:29.102Z,59.94
2022-12-28T17:55:55.951Z,60.09
2022-12-28T17:58:22.844Z,59.65
2022-12-28T18:00:54.880Z,59.63
2022-12-28T18:03:22.028Z,59.24
2022-12-28T18:05:49.428Z,59.33
2022-12-28T18:08:16.618Z,59.36
2022-12-28T18:10:45.652Z,58.99
2022-12-28T18:13:14.084Z,59.08
2022-12-28T18:15:43.160Z,58.62
2022-12-28T18:18:10.410Z,58.66
2022-12-28T18:20:37.364Z,58.49
2022-12-28T18:23:04.344Z,58.27
2022-12-28T18:25:31.764Z,57.99
2022-12-28T18:27:59.992Z,58.00
2022-12-28T18:30:26.995Z,57.80
2022-12-28T18:32:53.911Z,57.97
2022-12-28T18:35:24.849Z,58.06
2022-12-28T18:37:51.903Z,57.96
2022-12-28T18:40:18.969Z,57.76
2022-12-28T18:42:45.822Z,58.14
2022-12-28T18:45:14.303Z,58.02
2022-12-28T18:47:41.237Z,58.17
2022-12-28T18:50:09.333Z,58.41
2022-12-28T18:52:36.263Z,58.50
2022-12-28T18:55:03.925Z,58.88
2022-12-28T18:57:30.827Z,59.49
2022-12-28T18:59:57.689Z,59.43
2022-12-28T19:02:26.009Z,60.28
2022-12-28T19:04:53.315Z,60.79
2022-12-28T19:07:20.408Z,61.25
2022-12-28T19:10:12.966Z,61.39
2022-12-28T19:12:41.085Z,61.85
2022-12-28T19:15:09.523Z,61.67
2022-12-28T19:17:37.821Z,61.70
2022-12-28T19:20:06.342Z,61.94
2022-12-28T19:22:33.310Z,61.81
2022-12-28T19:25:00.250Z,62.01
2022-12-28T19:27:27.324Z,62.77
2022-12-28T19:29:54.178Z,63.11
2022-12-28T19:32:21.140Z,63.04
2022-12-28T19:34:49.436Z,63.12
2022-12-28T19:37:16.295Z,63.44
2022-12-28T19:39:43.204Z,63.75
2022-12-28T19:42:10.133Z,63.68
2022-12-28T19:44:37.011Z,64.00
2022-12-28T19:47:03.942Z,63.61
2022-12-28T19:49:30.855Z,63.53
2022-12-28T19:51:59.092Z,63.70
2022-12-28T19:54:25.997Z,63.58
2022-12-28T19:56:52.837Z,63.91
2022-12-28T19:59:19.725Z,63.77
2022-12-28T20:01:46.672Z,63.71
2022-12-28T20:04:14.609Z,63.97
2022-12-28T20:06:43.578Z,64.73
2022-12-28T20:09:13.445Z,64.75
2022-12-28T20:11:40.706Z,64.72
2022-12-28T20:14:10.045Z,64.56
2022-12-28T20:16:37.492Z,65.27
2022-12-28T20:19:06.835Z,65.61
2022-12-28T20:21:35.333Z,65.19
2022-12-28T20:24:02.935Z,65.33
2022-12-28T20:26:32.465Z,65.54
2022-12-28T20:29:01.327Z,65.68
2022-12-28T20:31:29.182Z,65.82
2022-12-28T20:33:56.287Z,65.72
2022-12-28T20:36:26.546Z,65.45
2022-12-28T20:38:55.101Z,65.54
2022-12-28T20:41:43.862Z,65.08
2022-12-28T20:44:16.298Z,64.95
2022-12-28T20:46:44.184Z,65.30
2022-12-28T20:49:12.162Z,65.17
2022-12-28T20:51:41.176Z,65.31
2022-12-28T20:54:10.287Z,65.88
2022-12-28T20:56:38.481Z,66.75
2022-12-28T20:59:05.806Z,66.47
2022-12-28T21:01:35.718Z,66.34
2022-12-28T21:04:03.059Z,66.25
2022-12-28T21:06:29.993Z,65.99
2022-12-28T21:08:56.859Z,66.06
2022-12-28T21:11:23.836Z,65.93
2022-12-28T21:13:53.802Z,65.92
2022-12-28T21:16:20.786Z,65.34
2022-12-28T21:18:50.592Z,65.43
2022-12-28T21:21:21.777Z,65.56
2022-12-28T21:23:49.280Z,65.28
2022-12-28T21:26:18.880Z,65.32
2022-12-28T21:28:45.806Z,65.56
2022-12-28T21:31:13.820Z,66.07
2022-12-28T21:33:41.279Z,65.52
2022-12-28T21:36:14.983Z,65.40
2022-12-28T21:38:44.098Z,65.53
2022-12-28T21:41:14.310Z,65.78
2022-12-28T21:43:42.095Z,65.21
2022-12-28T21:46:13.394Z,65.89
2022-12-28T21:48:41.491Z,65.52
2022-12-28T21:51:31.162Z,65.52
2022-12-28T21:53:59.178Z,65.75
2022-12-28T21:56:26.485Z,65.56
2022-12-28T21:58:53.313Z,65.41
2022-12-28T22:01:39.234Z,65.35
2022-12-28T22:04:25.199Z,65.51
2022-12-28T22:06:53.428Z,65.29
2022-12-28T22:09:38.650Z,65.44
2022-12-28T22:12:24.684Z,65.58
2022-12-28T22:15:11.541Z,65.52
2022-12-28T22:17:38.424Z,65.47
2022-12-28T22:20:06.884Z,65.32
2022-12-28T22:22:35.083Z,65.46
2022-12-28T22:25:02.062Z,65.33
2022-12-28T22:27:28.937Z,65.21
2022-12-28T22:29:55.784Z,64.92
2022-12-28T22:32:24.028Z,64.97
2022-12-28T22:34:50.938Z,65.01
2022-12-28T22:37:18.107Z,64.64
2022-12-28T22:39:46.369Z,64.72
2022-12-28T22:42:15.373Z,64.46
2022-12-28T22:44:42.419Z,64.58
2022-12-28T22:47:09.563Z,64.60
2022-12-28T22:49:36.515Z,64.51
2022-12-28T22:52:03.682Z,64.65
2022-12-28T22:54:30.581Z,64.55
2022-12-28T22:56:58.792Z,64.65
2022-12-28T22:59:25.746Z,65.01
2022-12-28T23:01:53.169Z,64.86
2022-12-28T23:04:20.567Z,64.87
2022-12-28T23:06:47.513Z,64.83
2022-12-28T23:09:14.558Z,64.49
2022-12-28T23:11:41.585Z,64.34
2022-12-28T23:14:32.243Z,64.26
2022-12-28T23:17:01.079Z,64.50
2022-12-28T23:19:47.500Z,64.25
2022-12-28T23:22:37.536Z,64.43
2022-12-28T23:25:24.525Z,64.52
2022-12-28T23:27:52.090Z,64.36
2022-12-28T23:30:22.374Z,64.13
2022-12-28T23:32:51.611Z,64.27
2022-12-28T23:35:21.294Z,64.49
2022-12-28T23:37:48.904Z,64.58
2022-12-28T23:40:18.992Z,64.56
2022-12-28T23:42:46.219Z,64.28
2022-12-28T23:45:16.234Z,63.88
2022-12-28T23:47:45.331Z,63.25
2022-12-28T23:50:15.407Z,63.41
2022-12-28T23:52:42.799Z,63.04
2022-12-28T23:55:10.609Z,62.91
2022-12-28T23:57:38.336Z,62.55
